createdAt,value
2016-11-24T00:00:49.837Z,100711
2016-11-24T00:01:49.889Z,100711
2016-11-24T00:02:50.020Z,100716
2016-11-24T00:03:49.979Z,100717
2016-11-24T00:04:48.085Z,100712
2016-11-24T00:05:48.118Z,100713
2016-11-24T00:06:50.208Z,100717
2016-11-24T00:07:48.149Z,100718
2016-11-24T00:08:50.259Z,100719
2016-11-24T00:09:48.295Z,100719
2016-11-24T00:10:50.278Z,100724
2016-11-24T00:11:48.359Z,100724
2016-11-24T00:12:48.404Z,100726
2016-11-24T00:13:50.517Z,100726
2016-11-24T00:14:48.513Z,100727
2016-11-24T00:15:50.501Z,100725
2016-11-24T00:16:50.554Z,100731
2016-11-24T00:17:48.658Z,100729
2016-11-24T00:18:48.692Z,100733
2016-11-24T00:19:50.676Z,100732
2016-11-24T00:20:48.789Z,100731
2016-11-24T00:21:50.792Z,100733
2016-11-24T00:22:48.772Z,100731
2016-11-24T00:23:50.849Z,100734
2016-11-24T00:24:48.821Z,100734
2016-11-24T00:25:50.915Z,100736
2016-11-24T00:26:50.935Z,100737
2016-11-24T00:27:48.895Z,100737
2016-11-24T00:28:48.997Z,100739
2016-11-24T00:29:51.081Z,100736
2016-11-24T00:30:51.172Z,100733
2016-11-24T00:31:49.175Z,100733
2016-11-24T00:32:49.178Z,100730
2016-11-24T00:33:51.242Z,100730
2016-11-24T00:34:49.284Z,100731
2016-11-24T00:35:49.320Z,100727
2016-11-24T00:36:51.401Z,100731
2016-11-24T00:37:49.388Z,100736
2016-11-24T00:38:49.432Z,100732
2016-11-24T00:39:49.535Z,100730
2016-11-24T00:40:51.661Z,100731
2016-11-24T00:41:49.648Z,100731
2016-11-24T00:42:49.737Z,100732
2016-11-24T00:43:49.780Z,100738
2016-11-24T00:44:49.789Z,100733
2016-11-24T00:45:51.940Z,100734
2016-11-24T00:46:49.933Z,100735
2016-11-24T00:47:49.945Z,100734
2016-11-24T00:48:49.975Z,100734
2016-11-24T00:49:50.034Z,100734
2016-11-24T00:50:50.041Z,100732
2016-11-24T00:51:52.099Z,100732
2016-11-24T00:52:52.120Z,100735
2016-11-24T00:53:52.227Z,100732
2016-11-24T00:54:50.288Z,100735
2016-11-24T00:55:50.284Z,100731
2016-11-24T00:56:52.414Z,100733
2016-11-24T00:57:52.538Z,100732
2016-11-24T00:58:50.516Z,100734
2016-11-24T00:59:50.536Z,100735
2016-11-24T01:00:50.573Z,100735
2016-11-24T01:01:52.606Z,100735
2016-11-24T01:02:50.625Z,100736
2016-11-24T01:03:50.652Z,100732
2016-11-24T01:04:52.739Z,100733
2016-11-24T01:05:52.843Z,100731
2016-11-24T01:06:52.925Z,100732
2016-11-24T01:07:50.922Z,100729
2016-11-24T01:08:50.907Z,100736
2016-11-24T01:09:52.964Z,100734
2016-11-24T01:10:51.008Z,100735
2016-11-24T01:11:51.102Z,100735
2016-11-24T01:12:53.133Z,100734
2016-11-24T01:13:53.146Z,100732
2016-11-24T01:14:51.129Z,100734
2016-11-24T01:15:53.237Z,100734
2016-11-24T01:16:51.178Z,100734
2016-11-24T01:17:51.291Z,100727
2016-11-24T01:18:53.318Z,100731
2016-11-24T01:19:53.331Z,100736
2016-11-24T01:20:53.376Z,100730
2016-11-24T01:21:53.474Z,100733
2016-11-24T01:22:53.520Z,100733
2016-11-24T01:23:51.526Z,100730
2016-11-24T01:24:53.545Z,100730
2016-11-24T01:25:51.625Z,100732
2016-11-24T01:26:53.703Z,100731
2016-11-24T01:27:52.307Z,100731
2016-11-24T01:28:51.732Z,100734
2016-11-24T01:29:51.768Z,100730
2016-11-24T01:30:51.812Z,100735
2016-11-24T01:31:51.849Z,100735
2016-11-24T01:32:53.961Z,100733
2016-11-24T01:33:51.947Z,100734
2016-11-24T01:34:51.992Z,100734
2016-11-24T01:35:54.101Z,100732
2016-11-24T01:36:54.163Z,100735
2016-11-24T01:37:54.307Z,100736
2016-11-24T01:38:52.271Z,100735
2016-11-24T01:39:52.319Z,100735
2016-11-24T01:40:54.421Z,100740
2016-11-24T01:41:54.559Z,100738
2016-11-24T01:42:52.559Z,100737
2016-11-24T01:43:54.668Z,100741
2016-11-24T01:44:52.615Z,100738
2016-11-24T01:45:54.706Z,100738
2016-11-24T01:46:54.767Z,100736
2016-11-24T01:47:54.764Z,100739
2016-11-24T01:48:54.828Z,100737
2016-11-24T01:49:52.844Z,100739
2016-11-24T01:50:54.902Z,100737
2016-11-24T01:51:54.984Z,100739
2016-11-24T01:52:52.952Z,100738
2016-11-24T01:53:53.071Z,100737
2016-11-24T01:54:55.131Z,100734
2016-11-24T01:55:53.195Z,100735
2016-11-24T01:56:55.329Z,100738
2016-11-24T01:57:53.261Z,100738
2016-11-24T01:58:53.300Z,100738
2016-11-24T01:59:53.334Z,100739
2016-11-24T02:00:55.425Z,100740
2016-11-24T02:01:53.485Z,100740
2016-11-24T02:02:53.471Z,100744
2016-11-24T02:03:53.490Z,100743
2016-11-24T02:04:55.604Z,100745
2016-11-24T02:05:55.590Z,100740
2016-11-24T02:06:53.691Z,100740
2016-11-24T02:07:53.660Z,100745
2016-11-24T02:08:55.800Z,100740
2016-11-24T02:09:53.714Z,100739
2016-11-24T02:10:53.754Z,100740
2016-11-24T02:11:55.919Z,100741
2016-11-24T02:12:54.006Z,100740
2016-11-24T02:13:53.989Z,100739
2016-11-24T02:14:56.104Z,100737
2016-11-24T02:15:56.130Z,100738
2016-11-24T02:16:54.110Z,100741
2016-11-24T02:17:56.185Z,100738
2016-11-24T02:18:54.300Z,100742
2016-11-24T02:19:56.317Z,100741
2016-11-24T02:20:56.354Z,100737
2016-11-24T02:21:56.367Z,100741
2016-11-24T02:22:54.415Z,100741
2016-11-24T02:23:56.537Z,100744
2016-11-24T02:24:56.597Z,100744
2016-11-24T02:25:54.687Z,100741
2016-11-24T02:26:56.683Z,100742
2016-11-24T02:27:56.691Z,100742
2016-11-24T02:28:56.795Z,100741
2016-11-24T02:29:54.904Z,100741
2016-11-24T02:30:56.930Z,100743
2016-11-24T02:31:54.932Z,100740
2016-11-24T02:32:55.123Z,100740
2016-11-24T02:33:55.050Z,100738
2016-11-24T02:34:55.162Z,100742
2016-11-24T02:35:57.242Z,100741
2016-11-24T02:36:55.359Z,100740
2016-11-24T02:37:57.372Z,100742
2016-11-24T02:38:57.547Z,100741
2016-11-24T02:39:57.563Z,100739
2016-11-24T02:40:55.562Z,100738
2016-11-24T02:41:57.619Z,100737
2016-11-24T02:42:55.793Z,100738
2016-11-24T02:43:55.762Z,100736
2016-11-24T02:44:57.896Z,100737
2016-11-24T02:45:57.851Z,100731
2016-11-24T02:46:57.940Z,100731
2016-11-24T02:47:57.983Z,100732
2016-11-24T02:48:55.962Z,100728
2016-11-24T02:49:55.990Z,100735
2016-11-24T02:50:58.122Z,100731
2016-11-24T02:51:58.149Z,100736
2016-11-24T02:52:56.186Z,100735
2016-11-24T02:53:56.252Z,100735
2016-11-24T02:54:58.373Z,100736
2016-11-24T02:55:56.364Z,100734
2016-11-24T02:56:56.334Z,100737
2016-11-24T02:57:58.452Z,100735
2016-11-24T02:58:56.492Z,100738
2016-11-24T02:59:58.561Z,100734
2016-11-24T03:00:58.634Z,100735
2016-11-24T03:01:56.581Z,100741
2016-11-24T03:02:59.231Z,100737
2016-11-24T03:03:56.669Z,100742
2016-11-24T03:04:58.797Z,100738
2016-11-24T03:05:56.869Z,100738
2016-11-24T03:06:58.984Z,100738
2016-11-24T03:07:56.970Z,100737
2016-11-24T03:08:58.405Z,100737
2016-11-24T03:09:57.799Z,100739
2016-11-24T03:10:59.623Z,100739
2016-11-24T03:11:57.883Z,100741
2016-11-24T03:12:57.214Z,100744
2016-11-24T03:13:59.249Z,100737
2016-11-24T03:14:57.258Z,100745
2016-11-24T03:15:59.329Z,100745
2016-11-24T03:16:58.011Z,100743
2016-11-24T03:17:59.456Z,100754
2016-11-24T03:18:58.592Z,100753
2016-11-24T03:19:59.644Z,100753
2016-11-24T03:20:58.312Z,100753
2016-11-24T03:21:57.806Z,100751
2016-11-24T03:23:00.470Z,100755
2016-11-24T03:23:59.943Z,100755
2016-11-24T03:24:59.878Z,100758
2016-11-24T03:25:59.980Z,100756
2016-11-24T03:27:00.024Z,100760
2016-11-24T03:28:00.071Z,100756
2016-11-24T03:28:58.108Z,100754
2016-11-24T03:30:00.164Z,100759
2016-11-24T03:31:00.218Z,100756
2016-11-24T03:31:58.158Z,100756
2016-11-24T03:33:00.358Z,100755
2016-11-24T03:33:58.429Z,100756
2016-11-24T03:34:58.462Z,100756
2016-11-24T03:36:00.462Z,100754
2016-11-24T03:36:58.463Z,100761
2016-11-24T03:38:00.526Z,100761
2016-11-24T03:38:58.601Z,100761
2016-11-24T03:39:58.671Z,100761
2016-11-24T03:40:58.657Z,100762
2016-11-24T03:41:58.694Z,100764
2016-11-24T03:42:58.740Z,100762
2016-11-24T03:44:00.776Z,100768
2016-11-24T03:44:58.804Z,100765
2016-11-24T03:45:58.873Z,100762
2016-11-24T03:46:58.822Z,100767
2016-11-24T03:47:58.938Z,100764
2016-11-24T03:48:59.032Z,100766
2016-11-24T03:50:01.028Z,100771
2016-11-24T03:51:01.097Z,100769
2016-11-24T03:52:01.128Z,100766
2016-11-24T03:53:01.232Z,100774
2016-11-24T03:53:59.254Z,100773
2016-11-24T03:54:59.350Z,100773
2016-11-24T03:56:01.481Z,100776
2016-11-24T03:56:59.445Z,100776
2016-11-24T03:57:59.466Z,100777
2016-11-24T03:59:01.595Z,100778
2016-11-24T04:00:01.629Z,100774
2016-11-24T04:01:01.727Z,100781
2016-11-24T04:02:01.731Z,100784
2016-11-24T04:03:01.785Z,100791
2016-11-24T04:04:01.752Z,100792
2016-11-24T04:05:01.820Z,100793
2016-11-24T04:05:59.815Z,100794
2016-11-24T04:07:01.884Z,100797
2016-11-24T04:08:01.885Z,100800
2016-11-24T04:08:59.966Z,100800
2016-11-24T04:10:02.059Z,100799
2016-11-24T04:11:02.068Z,100802
2016-11-24T04:12:00.037Z,100808
2016-11-24T04:13:00.053Z,100810
2016-11-24T04:14:02.104Z,100813
2016-11-24T04:15:02.255Z,100813
2016-11-24T04:16:02.190Z,100809
2016-11-24T04:17:02.275Z,100812
2016-11-24T04:18:02.292Z,100811
2016-11-24T04:19:00.322Z,100812
2016-11-24T04:20:00.363Z,100816
2016-11-24T04:21:02.412Z,100810
2016-11-24T04:22:02.483Z,100812
2016-11-24T04:23:02.447Z,100806
2016-11-24T04:24:00.532Z,100807
2016-11-24T04:25:02.644Z,100809
2016-11-24T04:26:00.668Z,100811
2016-11-24T04:27:02.644Z,100814
2016-11-24T04:28:00.627Z,100810
2016-11-24T04:29:00.726Z,100808
2016-11-24T04:30:02.732Z,100814
2016-11-24T04:31:02.795Z,100811
2016-11-24T04:32:02.851Z,100815
2016-11-24T04:33:00.828Z,100810
2016-11-24T04:34:00.883Z,100815
2016-11-24T04:35:02.926Z,100813
2016-11-24T04:36:02.972Z,100815
2016-11-24T04:37:00.961Z,100814
2016-11-24T04:38:03.003Z,100817
2016-11-24T04:39:01.003Z,100813
2016-11-24T04:40:03.110Z,100814
2016-11-24T04:41:01.153Z,100816
2016-11-24T04:42:01.205Z,100818
2016-11-24T04:43:01.242Z,100818
2016-11-24T04:44:01.246Z,100822
2016-11-24T04:45:03.329Z,100824
2016-11-24T04:46:03.310Z,100819
2016-11-24T04:47:03.383Z,100822
2016-11-24T04:48:03.438Z,100826
2016-11-24T04:49:03.560Z,100828
2016-11-24T04:50:01.518Z,100833
2016-11-24T04:51:01.539Z,100826
2016-11-24T04:52:01.625Z,100830
2016-11-24T04:53:01.722Z,100830
2016-11-24T04:54:01.728Z,100831
2016-11-24T04:55:03.792Z,100827
2016-11-24T04:56:01.863Z,100831
2016-11-24T04:57:03.925Z,100826
2016-11-24T04:58:04.008Z,100828
2016-11-24T04:59:02.063Z,100827
2016-11-24T05:00:04.069Z,100828
2016-11-24T05:01:04.123Z,100827
2016-11-24T05:02:02.204Z,100824
2016-11-24T05:03:02.299Z,100821
2016-11-24T05:04:04.411Z,100822
2016-11-24T05:05:02.390Z,100822
2016-11-24T05:06:04.461Z,100821
2016-11-24T05:07:04.457Z,100821
2016-11-24T05:08:04.515Z,100818
2016-11-24T05:09:04.609Z,100819
2016-11-24T05:10:04.659Z,100818
2016-11-24T05:11:04.765Z,100822
2016-11-24T05:12:04.870Z,100819
2016-11-24T05:13:02.786Z,100818
2016-11-24T05:14:04.913Z,100824
2016-11-24T05:15:02.975Z,100823
2016-11-24T05:16:05.018Z,100826
2016-11-24T05:17:05.134Z,100826
2016-11-24T05:18:05.218Z,100826
2016-11-24T05:19:05.308Z,100829
2016-11-24T05:20:03.295Z,100830
2016-11-24T05:21:03.370Z,100829
2016-11-24T05:22:03.409Z,100827
2016-11-24T05:23:05.546Z,100834
2016-11-24T05:24:03.553Z,100836
2016-11-24T05:25:03.622Z,100837
2016-11-24T05:26:03.647Z,100833
2016-11-24T05:27:05.742Z,100837
2016-11-24T05:28:05.729Z,100837
2016-11-24T05:29:03.774Z,100841
2016-11-24T05:30:03.739Z,100837
2016-11-24T05:31:03.753Z,100833
2016-11-24T05:32:05.802Z,100836
2016-11-24T05:33:03.859Z,100841
2016-11-24T05:34:06.011Z,100837
2016-11-24T05:35:04.106Z,100835
2016-11-24T05:36:06.108Z,100837
2016-11-24T05:37:06.179Z,100839
2016-11-24T05:38:06.212Z,100837
2016-11-24T05:39:06.233Z,100834
2016-11-24T05:40:04.307Z,100839
2016-11-24T05:41:04.292Z,100832
2016-11-24T05:42:04.320Z,100830
2016-11-24T05:43:04.381Z,100834
2016-11-24T05:44:06.445Z,100839
2016-11-24T05:45:04.523Z,100832
2016-11-24T05:46:04.496Z,100830
2016-11-24T05:47:06.594Z,100837
2016-11-24T05:48:04.579Z,100832
2016-11-24T05:49:05.362Z,100835
2016-11-24T05:50:04.684Z,100839
2016-11-24T05:51:06.780Z,100836
2016-11-24T05:52:06.788Z,100836
2016-11-24T05:53:04.848Z,100833
2016-11-24T05:54:04.914Z,100833
2016-11-24T05:55:06.958Z,100831
2016-11-24T05:56:06.985Z,100830
2016-11-24T05:57:05.016Z,100831
2016-11-24T05:58:05.107Z,100832
2016-11-24T05:59:07.158Z,100829
2016-11-24T06:00:07.290Z,100833
2016-11-24T06:01:05.323Z,100825
2016-11-24T06:02:05.345Z,100825
2016-11-24T06:03:05.428Z,100824
2016-11-24T06:04:05.468Z,100821
2016-11-24T06:05:05.553Z,100819
2016-11-24T06:06:07.543Z,100818
2016-11-24T06:07:07.656Z,100819
2016-11-24T06:08:07.731Z,100816
2016-11-24T06:09:05.755Z,100818
2016-11-24T06:10:05.796Z,100816
2016-11-24T06:11:07.822Z,100818
2016-11-24T06:12:05.833Z,100814
2016-11-24T06:13:05.891Z,100821
2016-11-24T06:14:07.953Z,100820
2016-11-24T06:15:05.958Z,100818
2016-11-24T06:16:06.005Z,100818
2016-11-24T06:17:08.756Z,100815
2016-11-24T06:18:08.169Z,100814
2016-11-24T06:19:08.146Z,100813
2016-11-24T06:20:08.222Z,100814
2016-11-24T06:21:06.305Z,100816
2016-11-24T06:22:06.298Z,100816
2016-11-24T06:23:06.421Z,100811
2016-11-24T06:24:06.498Z,100817
2016-11-24T06:25:06.587Z,100816
2016-11-24T06:26:06.606Z,100815
2016-11-24T06:27:08.708Z,100817
2016-11-24T06:28:08.764Z,100815
2016-11-24T06:29:08.741Z,100819
2016-11-24T06:30:08.760Z,100827
2016-11-24T06:31:08.761Z,100823
2016-11-24T06:32:06.827Z,100827
2016-11-24T06:33:06.981Z,100825
2016-11-24T06:34:09.068Z,100823
2016-11-24T06:35:09.153Z,100827
2016-11-24T06:36:09.221Z,100828
2016-11-24T06:37:07.273Z,100827
2016-11-24T06:38:09.247Z,100826
2016-11-24T06:39:07.316Z,100827
2016-11-24T06:40:07.324Z,100832
2016-11-24T06:41:07.304Z,100828
2016-11-24T06:42:09.378Z,100833
2016-11-24T06:43:09.500Z,100837
2016-11-24T06:44:07.499Z,100831
2016-11-24T06:45:07.650Z,100828
2016-11-24T06:46:09.616Z,100835
2016-11-24T06:47:07.692Z,100836
2016-11-24T06:48:07.650Z,100841
2016-11-24T06:49:07.706Z,100838
2016-11-24T06:50:07.809Z,100843
2016-11-24T06:51:09.941Z,100843
2016-11-24T06:52:07.950Z,100845
2016-11-24T06:53:07.986Z,100845
2016-11-24T06:54:07.998Z,100845
2016-11-24T06:55:08.097Z,100850
2016-11-24T06:56:10.134Z,100855
2016-11-24T06:57:10.178Z,100854
2016-11-24T06:58:08.245Z,100860
2016-11-24T06:59:10.294Z,100859
2016-11-24T07:00:10.315Z,100857
2016-11-24T07:01:08.341Z,100871
2016-11-24T07:02:10.394Z,100874
2016-11-24T07:03:10.512Z,100870
2016-11-24T07:04:10.578Z,100881
2016-11-24T07:05:10.591Z,100872
2016-11-24T07:06:10.619Z,100860
2016-11-24T07:07:10.635Z,100868
2016-11-24T07:08:10.672Z,100868
2016-11-24T07:09:10.680Z,100866
2016-11-24T07:10:10.832Z,100860
2016-11-24T07:11:10.916Z,100872
2016-11-24T07:12:08.946Z,100857
2016-11-24T07:13:08.893Z,100861
2016-11-24T07:14:11.015Z,100866
2016-11-24T07:15:09.027Z,100865
2016-11-24T07:16:09.130Z,100877
2016-11-24T07:17:11.131Z,100878
2016-11-24T07:18:09.143Z,100881
2016-11-24T07:19:09.227Z,100874
2016-11-24T07:20:11.295Z,100878
2016-11-24T07:21:11.307Z,100879
2016-11-24T07:22:09.301Z,100882
2016-11-24T07:23:11.369Z,100892
2016-11-24T07:24:11.475Z,100884
2016-11-24T07:25:10.019Z,100887
2016-11-24T07:26:11.617Z,100886
2016-11-24T07:27:11.590Z,100887
2016-11-24T07:28:11.704Z,100884
2016-11-24T07:29:12.755Z,100886
2016-11-24T07:30:09.802Z,100888
2016-11-24T07:31:10.955Z,100904
2016-11-24T07:32:11.070Z,100903
2016-11-24T07:33:13.587Z,100905
2016-11-24T07:34:12.007Z,100902
2016-11-24T07:35:10.093Z,100899
2016-11-24T07:36:10.214Z,100903
2016-11-24T07:37:12.223Z,100906
2016-11-24T07:38:12.269Z,100901
2016-11-24T07:39:12.321Z,100907
2016-11-24T07:40:10.380Z,100900
2016-11-24T07:41:10.421Z,100897
2016-11-24T07:42:10.440Z,100898
2016-11-24T07:43:12.616Z,100901
2016-11-24T07:44:12.651Z,100904
2016-11-24T07:45:10.618Z,100903
2016-11-24T07:46:10.638Z,100911
2016-11-24T07:47:12.670Z,100914
2016-11-24T07:48:10.676Z,100918
2016-11-24T07:49:12.806Z,100914
2016-11-24T07:50:10.781Z,100911
2016-11-24T07:51:12.866Z,100914
2016-11-24T07:52:10.977Z,100913
2016-11-24T07:53:11.701Z,100917
2016-11-24T07:54:13.140Z,100919
2016-11-24T07:55:11.217Z,100925
2016-11-24T07:56:11.237Z,100926
2016-11-24T07:57:11.319Z,100929
2016-11-24T07:58:14.044Z,100935
2016-11-24T07:59:13.489Z,100940
2016-11-24T08:00:13.594Z,100937
2016-11-24T08:01:13.588Z,100943
2016-11-24T08:02:11.564Z,100931
2016-11-24T08:03:13.082Z,100937
2016-11-24T08:04:13.794Z,100937
2016-11-24T08:05:14.385Z,100935
2016-11-24T08:06:13.951Z,100938
2016-11-24T08:07:12.728Z,100936
2016-11-24T08:08:14.695Z,100938
2016-11-24T08:09:12.100Z,100935
2016-11-24T08:10:12.227Z,100932
2016-11-24T08:11:14.174Z,100932
2016-11-24T08:12:14.343Z,100933
2016-11-24T08:13:14.317Z,100933
2016-11-24T08:14:14.381Z,100937
2016-11-24T08:15:15.800Z,100936
2016-11-24T08:16:15.126Z,100935
2016-11-24T08:17:14.514Z,100934
2016-11-24T08:18:14.580Z,100932
2016-11-24T08:19:12.522Z,100934
2016-11-24T08:20:12.499Z,100927
2016-11-24T08:21:14.588Z,100925
2016-11-24T08:22:14.610Z,100929
2016-11-24T08:23:14.618Z,100925
2016-11-24T08:24:15.181Z,100940
2016-11-24T08:25:13.211Z,100941
2016-11-24T08:26:13.408Z,100945
2016-11-24T08:27:13.182Z,100945
2016-11-24T08:28:15.370Z,100948
2016-11-24T08:29:13.327Z,100947
2016-11-24T08:30:12.884Z,100943
2016-11-24T08:31:14.926Z,100945
2016-11-24T08:32:13.056Z,100942
2016-11-24T08:33:15.142Z,100942
2016-11-24T08:34:13.882Z,100948
2016-11-24T08:35:15.880Z,100947
2016-11-24T08:36:15.251Z,100947
2016-11-24T08:37:16.022Z,100949
2016-11-24T08:38:13.329Z,100947
2016-11-24T08:39:13.380Z,100948
2016-11-24T08:40:15.465Z,100950
2016-11-24T08:41:16.372Z,100947
2016-11-24T08:42:14.231Z,100952
2016-11-24T08:43:14.778Z,100954
2016-11-24T08:44:15.556Z,100953
2016-11-24T08:45:13.531Z,100947
2016-11-24T08:46:15.698Z,100947
2016-11-24T08:47:16.708Z,100954
2016-11-24T08:48:15.850Z,100951
2016-11-24T08:49:15.880Z,100948
2016-11-24T08:50:14.560Z,100957
2016-11-24T08:51:13.932Z,100955
2016-11-24T08:52:15.799Z,100955
2016-11-24T08:53:14.648Z,100954
2016-11-24T08:54:16.793Z,100954
2016-11-24T08:55:16.111Z,100956
2016-11-24T08:56:16.893Z,100961
2016-11-24T08:57:18.287Z,100948
2016-11-24T08:58:14.314Z,100953
2016-11-24T08:59:21.881Z,100954
2016-11-24T09:00:14.315Z,100953
2016-11-24T09:01:14.438Z,100958
2016-11-24T09:02:14.495Z,100962
2016-11-24T09:03:16.643Z,100963
2016-11-24T09:04:17.858Z,100964
2016-11-24T09:05:14.595Z,100966
2016-11-24T09:06:16.310Z,100966
2016-11-24T09:07:15.376Z,100964
2016-11-24T09:08:17.959Z,100969
2016-11-24T09:09:16.841Z,100968
2016-11-24T09:10:17.625Z,100972
2016-11-24T09:11:15.027Z,100973
2016-11-24T09:12:17.143Z,100983
2016-11-24T09:13:15.075Z,100976
2016-11-24T09:14:17.663Z,100980
2016-11-24T09:15:18.463Z,100980
2016-11-24T09:16:17.902Z,100984
2016-11-24T09:17:15.179Z,100979
2016-11-24T09:18:17.914Z,100977
2016-11-24T09:19:15.321Z,100982
2016-11-24T09:20:19.152Z,100980
2016-11-24T09:21:20.033Z,100982
2016-11-24T09:22:15.471Z,100974
2016-11-24T09:23:15.489Z,100958
2016-11-24T09:24:17.557Z,100979
2016-11-24T09:25:15.603Z,100974
2016-11-24T09:26:15.677Z,100972
2016-11-24T09:27:17.695Z,100970
2016-11-24T09:28:15.721Z,100964
2016-11-24T09:29:18.539Z,100962
2016-11-24T09:30:17.836Z,100965
2016-11-24T09:31:16.306Z,100962
2016-11-24T09:32:16.601Z,100967
2016-11-24T09:33:15.932Z,100974
2016-11-24T09:34:17.197Z,100971
2016-11-24T09:35:18.729Z,100966
2016-11-24T09:36:16.105Z,100970
2016-11-24T09:37:18.149Z,100972
2016-11-24T09:38:16.221Z,100973
2016-11-24T09:39:16.318Z,100974
2016-11-24T09:40:19.815Z,100973
2016-11-24T09:41:19.631Z,100971
2016-11-24T09:42:16.514Z,100971
2016-11-24T09:43:18.521Z,100974
2016-11-24T09:44:18.585Z,100972
2016-11-24T09:45:16.526Z,100973
2016-11-24T09:46:19.270Z,100971
2016-11-24T09:47:16.608Z,100959
2016-11-24T09:48:18.623Z,100958
2016-11-24T09:49:20.094Z,100963
2016-11-24T09:50:18.748Z,100969
2016-11-24T09:51:16.855Z,100962
2016-11-24T09:52:19.501Z,100965
2016-11-24T09:53:17.677Z,100965
2016-11-24T09:54:19.005Z,100963
2016-11-24T09:55:16.984Z,100964
2016-11-24T09:56:17.084Z,100954
2016-11-24T09:57:19.216Z,100957
2016-11-24T09:58:19.276Z,100955
2016-11-24T09:59:18.903Z,100945
2016-11-24T10:00:19.462Z,100953
2016-11-24T10:01:19.441Z,100944
2016-11-24T10:02:18.036Z,100950
2016-11-24T10:03:21.105Z,100952
2016-11-24T10:04:20.152Z,100957
2016-11-24T10:05:17.534Z,100958
2016-11-24T10:06:20.346Z,100963
2016-11-24T10:07:19.728Z,100960
2016-11-24T10:08:17.656Z,100959
2016-11-24T10:09:17.730Z,100959
2016-11-24T10:10:19.858Z,100969
2016-11-24T10:11:19.923Z,100965
2016-11-24T10:12:19.979Z,100960
2016-11-24T10:13:17.986Z,100960
2016-11-24T10:14:23.018Z,100953
2016-11-24T10:15:18.023Z,100953
2016-11-24T10:16:18.091Z,100959
2016-11-24T10:17:20.431Z,100959
2016-11-24T10:18:20.129Z,100957
2016-11-24T10:19:20.267Z,100958
2016-11-24T10:20:18.173Z,100958
2016-11-24T10:21:20.012Z,100960
2016-11-24T10:22:19.604Z,100958
2016-11-24T10:23:19.026Z,100959
2016-11-24T10:24:21.739Z,100960
2016-11-24T10:25:21.728Z,100965
2016-11-24T10:26:22.426Z,100962
2016-11-24T10:27:18.537Z,100961
2016-11-24T10:28:21.927Z,100959
2016-11-24T10:29:21.229Z,100957
2016-11-24T10:30:20.680Z,100953
2016-11-24T10:31:18.739Z,100956
2016-11-24T10:32:18.767Z,100950
2016-11-24T10:33:19.320Z,100963
2016-11-24T10:34:20.126Z,100963
2016-11-24T10:35:22.751Z,100965
2016-11-24T10:36:20.934Z,100964
2016-11-24T10:37:22.131Z,100964
2016-11-24T10:38:20.158Z,100969
2016-11-24T10:39:18.967Z,100979
2016-11-24T10:40:19.816Z,100968
2016-11-24T10:41:21.726Z,100966
2016-11-24T10:42:21.132Z,100965
2016-11-24T10:43:19.883Z,100960
2016-11-24T10:44:19.199Z,100961
2016-11-24T10:45:19.225Z,100961
2016-11-24T10:46:19.380Z,100959
2016-11-24T10:47:22.033Z,100955
2016-11-24T10:48:21.526Z,100955
2016-11-24T10:49:23.299Z,100954
2016-11-24T10:50:22.799Z,100954
2016-11-24T10:51:21.687Z,100948
2016-11-24T10:52:23.903Z,100953
2016-11-24T10:53:19.752Z,100954
2016-11-24T10:54:22.539Z,100947
2016-11-24T10:55:20.451Z,100944
2016-11-24T10:56:19.909Z,100949
2016-11-24T10:57:19.985Z,100944
2016-11-24T10:58:21.367Z,100948
2016-11-24T10:59:25.620Z,100952
2016-11-24T11:00:24.122Z,100952
2016-11-24T11:01:22.240Z,100948
2016-11-24T11:02:22.923Z,100946
2016-11-24T11:03:21.272Z,100953
2016-11-24T11:04:20.280Z,100945
2016-11-24T11:05:23.511Z,100950
2016-11-24T11:06:22.390Z,100947
2016-11-24T11:07:22.523Z,100954
2016-11-24T11:08:23.157Z,100953
2016-11-24T11:09:20.486Z,100946
2016-11-24T11:10:24.371Z,100942
2016-11-24T11:11:22.705Z,100942
2016-11-24T11:12:24.382Z,100947
2016-11-24T11:13:24.095Z,100941
2016-11-24T11:14:23.613Z,100943
2016-11-24T11:15:22.027Z,100943
2016-11-24T11:16:24.198Z,100937
2016-11-24T11:17:22.979Z,100937
2016-11-24T11:18:20.991Z,100940
2016-11-24T11:19:23.081Z,100936
2016-11-24T11:20:23.050Z,100943
2016-11-24T11:21:23.722Z,100939
2016-11-24T11:22:23.720Z,100943
2016-11-24T11:23:23.906Z,100938
2016-11-24T11:24:21.322Z,100939
2016-11-24T11:25:22.441Z,100949
2016-11-24T11:26:21.260Z,100948
2016-11-24T11:27:21.386Z,100947
2016-11-24T11:28:23.675Z,100950
2016-11-24T11:29:22.253Z,100950
2016-11-24T11:30:24.904Z,100943
2016-11-24T11:31:23.146Z,100934
2016-11-24T11:32:25.104Z,100934
2016-11-24T11:33:21.932Z,100933
2016-11-24T11:34:24.639Z,100936
2016-11-24T11:35:23.917Z,100934
2016-11-24T11:36:24.722Z,100940
2016-11-24T11:37:23.989Z,100930
2016-11-24T11:38:23.814Z,100931
2016-11-24T11:39:24.787Z,100922
2016-11-24T11:40:22.796Z,100914
2016-11-24T11:41:24.237Z,100917
2016-11-24T11:42:24.234Z,100915
2016-11-24T11:43:22.990Z,100918
2016-11-24T11:44:22.947Z,100910
2016-11-24T11:45:22.997Z,100923
2016-11-24T11:46:24.406Z,100932
2016-11-24T11:47:24.405Z,100929
2016-11-24T11:48:23.134Z,100934
2016-11-24T11:49:26.153Z,100931
2016-11-24T11:50:23.880Z,100928
2016-11-24T11:51:24.644Z,100930
2016-11-24T11:52:22.622Z,100924
2016-11-24T11:53:22.747Z,100921
2016-11-24T11:54:23.306Z,100923
2016-11-24T11:55:24.699Z,100919
2016-11-24T11:56:23.185Z,100914
2016-11-24T11:57:27.172Z,100911
2016-11-24T11:58:26.687Z,100912
2016-11-24T11:59:26.128Z,100909
2016-11-24T12:00:26.685Z,100905
2016-11-24T12:01:27.358Z,100909
2016-11-24T12:02:26.791Z,100912
2016-11-24T12:03:28.030Z,100912
2016-11-24T12:04:25.901Z,100910
2016-11-24T12:05:25.289Z,100904
2016-11-24T12:06:23.828Z,100910
2016-11-24T12:07:26.607Z,100906
2016-11-24T12:08:23.290Z,100910
2016-11-24T12:09:27.096Z,100914
2016-11-24T12:10:24.610Z,100910
2016-11-24T12:11:24.799Z,100912
2016-11-24T12:12:25.446Z,100919
2016-11-24T12:13:24.597Z,100908
2016-11-24T12:14:27.973Z,100907
2016-11-24T12:15:23.582Z,100913
2016-11-24T12:16:26.342Z,100910
2016-11-24T12:17:25.611Z,100907
2016-11-24T12:18:25.673Z,100905
2016-11-24T12:19:24.350Z,100907
2016-11-24T12:20:23.685Z,100904
2016-11-24T12:21:24.413Z,100903
2016-11-24T12:22:23.901Z,100892
2016-11-24T12:23:23.865Z,100893
2016-11-24T12:24:24.561Z,100899
2016-11-24T12:25:26.782Z,100899
2016-11-24T12:26:24.074Z,100896
2016-11-24T12:27:26.832Z,100893
2016-11-24T12:28:24.906Z,100898
2016-11-24T12:29:24.238Z,100899